Time;durP1;ratioP1;P1;durP2;ratioP2;P2;SDS_P1;SDS_P2;PMS_P1;PMS_P2;Temp;Humidity;BMP_temperature;BMP_pressure;BME280_temperature;BME280_humidity;BME280_pressure;Samples;Min_cycle;Max_cycle;Signal;HPM_P1;HPM_P2
2022/12/01 00:01:05;;;;;;;52.53;21.95;;;;;;;6.09;100.00;102093.34;5055726;28;20119;-68
2022/12/01 00:03:33;;;;;;;53.08;21.67;;;;;;;6.10;100.00;102102.09;5055075;28;20406;-68
2022/12/01 00:06:04;;;;;;;58.15;21.95;;;;;;;6.03;100.00;102092.84;5054757;28;20037;-68
2022/12/01 00:08:32;;;;;;;60.00;22.75;;;;;;;6.00;100.00;102091.22;5055297;28;20071;-68
2022/12/01 00:11:08;;;;;;;50.40;20.73;;;;;;;6.08;100.00;102096.06;5055498;28;20045;-68
2022/12/01 00:13:35;;;;;;;55.08;21.05;;;;;;;6.09;100.00;102089.84;5054589;28;20506;-68
2022/12/01 00:16:12;;;;;;;61.90;22.60;;;;;;;6.02;100.00;102085.88;5055195;28;20063;-68
2022/12/01 00:18:39;;;;;;;52.85;20.70;;;;;;;6.05;100.00;102089.16;5055258;28;20049;-68
2022/12/01 00:21:12;;;;;;;54.45;21.13;;;;;;;6.17;100.00;102090.22;5054983;28;20040;-68
2022/12/01 00:23:42;;;;;;;51.78;21.30;;;;;;;6.05;99.80;102088.34;5054943;28;20051;-68
2022/12/01 00:26:09;;;;;;;57.33;21.08;;;;;;;5.96;100.00;102080.03;5054828;28;20098;-68
2022/12/01 00:28:35;;;;;;;54.13;21.48;;;;;;;5.94;100.00;102083.66;5054765;28;20041;-68
2022/12/01 00:31:06;;;;;;;58.15;21.88;;;;;;;5.99;100.00;102084.28;5054572;28;20044;-68
2022/12/01 00:33:33;;;;;;;56.05;21.65;;;;;;;5.97;100.00;102083.53;5054986;28;20052;-68
2022/12/01 00:36:00;;;;;;;60.42;21.52;;;;;;;5.90;100.00;102076.91;5054405;28;20438;-68
2022/12/01 00:38:27;;;;;;;54.70;21.92;;;;;;;5.80;100.00;102076.56;5054911;28;20107;-68
2022/12/01 00:40:54;;;;;;;54.05;21.95;;;;;;;5.77;100.00;102079.41;5054880;28;20060;-68
2022/12/01 00:43:21;;;;;;;55.75;21.85;;;;;;;5.80;100.00;102078.34;5054602;28;20524;-68
2022/12/01 00:45:47;;;;;;;57.03;21.88;;;;;;;5.84;100.00;102086.00;5054569;28;20094;-68
2022/12/01 00:48:15;;;;;;;53.17;21.58;;;;;;;5.83;100.00;102081.66;5054609;28;20060;-68
2022/12/01 00:50:42;;;;;;;50.40;19.38;;;;;;;5.77;100.00;102079.41;5054619;28;20052;-68
2022/12/01 00:53:08;;;;;;;51.65;20.77;;;;;;;5.77;100.00;102080.25;5054580;28;20049;-68
2022/12/01 00:55:35;;;;;;;55.08;21.00;;;;;;;5.87;100.00;102080.53;5054382;28;20629;-68
2022/12/01 00:58:03;;;;;;;52.90;20.77;;;;;;;5.92;100.00;102086.38;5052210;28;20044;-68
2022/12/01 01:00:29;;;;;;;47.50;19.70;;;;;;;5.95;100.00;102083.59;5054199;28;20041;-68
2022/12/01 01:02:56;;;;;;;47.60;19.55;;;;;;;6.04;100.00;102094.53;5054258;28;20417;-68
2022/12/01 01:05:23;;;;;;;46.97;18.40;;;;;;;6.03;100.00;102087.56;5053739;28;20103;-68
2022/12/01 01:07:50;;;;;;;43.60;19.10;;;;;;;6.05;100.00;102099.72;5052546;28;20037;-68
2022/12/01 01:10:16;;;;;;;45.28;19.23;;;;;;;6.07;99.90;102095.19;5054157;28;20052;-68
2022/12/01 01:12:43;;;;;;;48.65;19.65;;;;;;;6.04;99.68;102097.16;5053977;28;20057;-68
2022/12/01 01:15:10;;;;;;;46.63;19.15;;;;;;;6.18;99.70;102093.72;5053837;28;20037;-68
2022/12/01 01:17:36;;;;;;;46.80;19.55;;;;;;;6.24;100.00;102098.59;5053840;28;20057;-68
2022/12/01 01:20:03;;;;;;;51.10;20.05;;;;;;;6.24;99.80;102096.84;5054193;28;20490;-68
2022/12/01 01:22:30;;;;;;;54.38;21.70;;;;;;;6.26;99.80;102091.47;5053781;28;20045;-68
2022/12/01 01:24:57;;;;;;;55.85;23.73;;;;;;;6.23;99.61;102104.81;5054188;28;20053;-68
2022/12/01 01:27:23;;;;;;;54.85;22.70;;;;;;;6.11;100.00;102109.03;5053627;28;20045;-68
2022/12/01 01:29:50;;;;;;;59.30;23.25;;;;;;;6.01;100.00;102106.09;5052731;28;20071;-68
2022/12/01 01:32:17;;;;;;;59.90;22.38;;;;;;;5.92;100.00;102101.34;5053925;28;20049;-68
2022/12/01 01:34:44;;;;;;;61.35;23.77;;;;;;;5.96;100.00;102106.34;5053323;28;20048;-68
2022/12/01 01:37:10;;;;;;;67.82;23.60;;;;;;;5.90;100.00;102105.88;5053824;28;20083;-68
2022/12/01 01:39:37;;;;;;;67.18;25.02;;;;;;;5.75;100.00;102103.19;5053411;28;20053;-68
2022/12/01 01:42:04;;;;;;;62.42;24.05;;;;;;;5.74;100.00;102103.28;5053707;28;20102;-68
2022/12/01 01:44:55;;;;;;;67.00;24.17;;;;;;;5.71;100.00;102106.06;5053414;28;20052;-68
2022/12/01 01:47:27;;;;;;;66.40;23.77;;;;;;;5.70;100.00;102114.94;5053650;28;20045;-68
2022/12/01 01:49:58;;;;;;;66.22;24.30;;;;;;;5.68;100.00;102114.16;5053443;28;20482;-68
2022/12/01 01:52:26;;;;;;;71.35;24.48;;;;;;;5.77;100.00;102116.28;5053664;28;20051;-68
2022/12/01 01:54:54;;;;;;;63.08;23.38;;;;;;;5.80;100.00;102115.22;5051970;28;20045;-68
2022/12/01 01:57:27;;;;;;;69.20;24.20;;;;;;;5.77;100.00;102117.09;5052953;28;20037;-68
2022/12/01 02:00:00;;;;;;;59.58;23.75;;;;;;;5.78;100.00;102117.94;5053502;28;20487;-68
2022/12/01 02:02:27;;;;;;;77.07;24.13;;;;;;;5.73;100.00;102115.59;5053562;28;20075;-68
2022/12/01 02:05:00;;;;;;;70.13;24.15;;;;;;;5.79;100.00;102118.81;5053192;28;20143;-68
2022/12/01 02:07:27;;;;;;;70.63;24.02;;;;;;;5.74;100.00;102109.38;5052588;28;20064;-68
2022/12/01 02:09:55;;;;;;;72.53;23.95;;;;;;;5.74;100.00;102111.16;5052136;28;20049;-68
2022/12/01 02:12:48;;;;;;;73.80;24.42;;;;;;;5.78;100.00;102117.94;5052975;28;20057;-68
2022/12/01 02:15:29;;;;;;;75.13;24.02;;;;;;;5.75;100.00;102113.72;5052995;28;20128;-68
2022/12/01 02:21:20;;;;;;;73.45;24.58;;;;;;;5.71;100.00;102120.09;5090704;28;20199;-68
2022/12/01 02:24:18;;;;;;;72.18;23.50;;;;;;;5.60;100.00;102116.38;5090561;28;20052;-68
2022/12/01 02:26:51;;;;;;;78.22;24.60;;;;;;;5.66;100.00;102121.31;5090480;28;20059;-65
2022/12/01 02:29:48;;;;;;;84.78;25.08;;;;;;;5.68;100.00;102114.16;5090490;28;20089;-65
2022/12/01 02:32:40;;;;;;;90.53;26.75;;;;;;;5.67;100.00;102110.66;5090885;28;20131;-65
2022/12/01 02:35:47;;;;;;;84.18;25.73;;;;;;;5.66;100.00;102108.16;5090319;28;20066;-65
2022/12/01 02:41:19;;;;;;;81.03;25.65;;;;;;;5.84;100.00;102111.47;5111012;27;20358;-65
2022/12/01 02:43:58;;;;;;;81.85;25.13;;;;;;;5.86;100.00;102110.47;5110870;28;20043;-65
2022/12/01 02:46:32;;;;;;;85.78;24.48;;;;;;;5.91;100.00;102104.91;5111248;28;20047;-64
2022/12/01 02:49:06;;;;;;;88.43;25.98;;;;;;;5.81;100.00;102107.25;5111152;28;20040;-65
2022/12/01 02:51:38;;;;;;;83.15;25.30;;;;;;;5.90;100.00;102117.25;5109909;28;20047;-65
2022/12/01 02:54:05;;;;;;;85.20;25.70;;;;;;;6.00;100.00;102111.47;5110761;28;20063;-65
2022/12/01 02:56:32;;;;;;;82.18;26.05;;;;;;;5.93;100.00;102103.91;5111069;28;20405;-65
2022/12/01 02:58:59;;;;;;;82.80;25.88;;;;;;;5.89;100.00;102107.63;5092760;28;20094;-65
2022/12/01 03:01:54;;;;;;;70.95;25.05;;;;;;;5.92;100.00;102103.97;5110890;28;20139;-64
2022/12/01 03:04:37;;;;;;;85.03;25.58;;;;;;;5.87;100.00;102111.31;5110473;28;20047;-64
2022/12/01 03:07:42;;;;;;;80.10;25.77;;;;;;;5.85;100.00;102102.66;5110235;28;20055;-65
2022/12/01 03:16:15;;;;;;;97.85;27.92;;;;;;;5.68;100.00;102106.28;5111005;27;20354;-65
2022/12/01 03:19:05;;;;;;;98.65;27.45;;;;;;;5.66;100.00;102116.06;5111399;28;20050;-64
2022/12/01 03:21:40;;;;;;;100.57;27.67;;;;;;;5.67;100.00;102113.31;5111348;28;20485;-64
2022/12/01 03:24:13;;;;;;;101.45;27.80;;;;;;;5.66;100.00;102109.00;5111364;28;20130;-65
2022/12/01 03:26:43;;;;;;;104.22;29.33;;;;;;;5.58;100.00;102104.19;5110925;28;20058;-65
2022/12/01 03:29:16;;;;;;;91.90;28.15;;;;;;;5.61;100.00;102113.66;5111051;28;20051;-64
2022/12/01 03:31:49;;;;;;;94.00;27.65;;;;;;;5.58;100.00;102105.94;5111293;28;20044;-65
2022/12/01 03:34:23;;;;;;;96.07;27.60;;;;;;;5.59;100.00;102107.66;5110523;28;20039;-65
2022/12/01 03:36:56;;;;;;;96.97;28.58;;;;;;;5.63;100.00;102109.16;5110910;28;20047;-64
2022/12/01 03:39:32;;;;;;;93.85;27.58;;;;;;;5.65;100.00;102104.66;5110541;28;20044;-65
2022/12/01 03:42:06;;;;;;;97.47;28.77;;;;;;;5.62;100.00;102110.13;5110903;28;20493;-65
2022/12/01 03:44:43;;;;;;;108.78;27.83;;;;;;;5.68;100.00;102111.53;5110338;28;20039;-65
2022/12/01 03:47:16;;;;;;;90.13;27.27;;;;;;;5.64;100.00;102117.91;5110704;28;20046;-65
2022/12/01 03:49:44;;;;;;;91.32;27.38;;;;;;;5.62;100.00;102110.13;5110487;28;20122;-64
2022/12/01 03:52:27;;;;;;;90.38;27.17;;;;;;;5.51;100.00;102110.72;5109621;28;20400;-65
2022/12/01 03:55:19;;;;;;;104.90;27.67;;;;;;;5.48;100.00;102110.88;5110431;28;20089;-64
2022/12/01 04:00:33;;;;;;;93.60;26.48;;;;;;;5.38;100.00;102114.97;5111089;27;20372;-65
2022/12/01 04:03:02;;;;;;;103.90;28.80;;;;;;;5.36;100.00;102119.47;5111385;28;20500;-65
2022/12/01 04:05:31;;;;;;;102.97;27.52;;;;;;;5.45;100.00;102118.09;5110435;28;20039;-65
2022/12/01 04:07:58;;;;;;;115.32;29.48;;;;;;;5.42;100.00;102121.78;5110731;28;20039;-65
2022/12/01 04:10:25;;;;;;;117.50;30.60;;;;;;;5.43;100.00;102114.72;5111238;28;20117;-65
2022/12/01 04:12:57;;;;;;;109.28;28.98;;;;;;;5.47;100.00;102109.19;5111114;28;20490;-65
2022/12/01 04:15:25;;;;;;;107.40;28.63;;;;;;;5.57;100.00;102118.25;5110834;28;20044;-64
2022/12/01 04:17:52;;;;;;;96.90;29.20;;;;;;;5.67;100.00;102123.84;5110733;28;20040;-65
2022/12/01 04:20:20;;;;;;;98.78;29.63;;;;;;;5.69;100.00;102123.75;5110565;28;20039;-65
2022/12/01 04:22:47;;;;;;;93.93;27.40;;;;;;;5.64;100.00;102118.75;5111101;28;20168;-65
2022/12/01 04:25:14;;;;;;;99.47;28.67;;;;;;;5.62;100.00;102118.00;5110706;28;20545;-65
2022/12/01 04:27:40;;;;;;;93.30;28.58;;;;;;;5.60;100.00;102117.22;5109599;28;20043;-64
2022/12/01 04:30:08;;;;;;;86.93;26.67;;;;;;;5.66;100.00;102118.69;5110504;28;20067;-65
2022/12/01 04:32:38;;;;;;;92.75;27.88;;;;;;;5.58;100.00;102119.09;5110939;28;20055;-65
2022/12/01 04:35:07;;;;;;;90.97;27.50;;;;;;;5.57;100.00;102113.00;5109361;28;20051;-65
2022/12/01 04:37:33;;;;;;;73.05;25.58;;;;;;;5.55;100.00;102111.41;5110659;28;20044;-65
2022/12/01 04:40:00;;;;;;;66.75;25.05;;;;;;;5.65;100.00;102109.06;5110723;28;20058;-65
2022/12/01 04:42:27;;;;;;;74.45;24.85;;;;;;;5.61;100.00;102110.19;5110436;28;20047;-65
2022/12/01 04:44:53;;;;;;;65.10;23.80;;;;;;;5.62;100.00;102110.13;5110325;28;20105;-65
2022/12/01 04:47:20;;;;;;;70.57;23.90;;;;;;;5.60;100.00;102109.31;5110198;28;20503;-65
2022/12/01 04:49:46;;;;;;;66.07;23.08;;;;;;;5.70;100.00;102102.59;5109488;28;20043;-65
2022/12/01 04:52:14;;;;;;;64.22;23.58;;;;;;;5.77;100.00;102105.72;5110149;28;20051;-65
2022/12/01 04:54:41;;;;;;;62.22;22.65;;;;;;;5.85;100.00;102110.53;5110404;28;20389;-65
2022/12/01 04:57:08;;;;;;;56.92;22.10;;;;;;;5.83;99.52;102104.53;5110158;28;20044;-65
2022/12/01 04:59:35;;;;;;;61.42;23.38;;;;;;;5.80;98.99;102108.16;5109381;28;20112;-65
2022/12/01 05:02:02;;;;;;;57.53;22.08;;;;;;;5.80;99.60;102105.53;5109068;28;20047;-65
2022/12/01 05:04:31;;;;;;;60.13;22.40;;;;;;;5.76;99.99;102107.50;5109940;28;20039;-65
2022/12/01 05:06:58;;;;;;;69.45;23.63;;;;;;;5.85;99.50;102105.28;5108064;28;20040;-65
2022/12/01 05:09:24;;;;;;;63.50;22.92;;;;;;;5.84;98.84;102108.84;5109940;28;20123;-65
2022/12/01 05:11:51;;;;;;;54.63;20.50;;;;;;;5.71;99.20;102106.94;5097010;28;20444;-65
2022/12/01 05:14:17;;;;;;;54.17;22.10;;;;;;;5.82;99.08;102110.72;5095862;28;20468;-65
2022/12/01 05:16:44;;;;;;;56.03;22.55;;;;;;;5.83;98.41;102109.78;5096200;28;20405;-65
2022/12/01 05:21:58;;;;;;;61.88;23.17;;;;;;;5.89;98.69;102112.91;5094671;28;20093;-65
2022/12/01 05:24:24;;;;;;;54.45;21.65;;;;;;;5.99;97.76;102113.25;5095976;28;20093;-65
2022/12/01 05:26:51;;;;;;;55.42;21.48;;;;;;;5.80;98.12;102113.44;5095660;28;20132;-64
2022/12/01 05:29:18;;;;;;;58.28;22.33;;;;;;;5.73;98.87;102112.09;5095534;28;20089;-65
2022/12/01 05:31:45;;;;;;;60.65;22.63;;;;;;;5.80;98.58;102112.59;5096104;28;20051;-65
2022/12/01 05:34:12;;;;;;;63.22;24.35;;;;;;;5.68;99.76;102108.91;5095915;28;20507;-65
2022/12/01 05:36:40;;;;;;;69.05;24.00;;;;;;;5.63;98.80;102118.84;5096106;28;20055;-65
2022/12/01 05:39:07;;;;;;;60.97;22.85;;;;;;;5.76;99.05;102122.47;5095477;28;20067;-65
2022/12/01 05:41:34;;;;;;;53.20;22.33;;;;;;;5.77;99.08;102119.75;5094762;28;20119;-65
2022/12/01 05:44:00;;;;;;;66.45;23.17;;;;;;;5.74;99.18;102130.44;5095658;28;20052;-65
2022/12/01 05:46:27;;;;;;;56.78;22.85;;;;;;;5.71;98.77;102133.28;5095721;28;20054;-65
2022/12/01 05:48:54;;;;;;;64.82;23.25;;;;;;;5.70;98.58;102125.47;5095762;28;20051;-64
2022/12/01 05:51:20;;;;;;;59.22;22.73;;;;;;;5.69;99.45;102137.75;5095269;28;20493;-64
2022/12/01 05:53:48;;;;;;;60.45;23.63;;;;;;;5.60;98.89;102129.53;5094425;28;20048;-64
2022/12/01 05:56:14;;;;;;;56.88;23.73;;;;;;;5.59;99.16;102128.72;5095330;28;20044;-65
2022/12/01 05:58:41;;;;;;;65.10;23.90;;;;;;;5.71;99.33;102125.38;5095454;28;20060;-65
2022/12/01 06:01:08;;;;;;;62.35;24.63;;;;;;;5.71;98.60;102122.75;5095183;28;20097;-65
2022/12/01 06:03:35;;;;;;;58.17;22.70;;;;;;;5.67;98.71;102128.25;5095618;28;20044;-65
2022/12/01 06:06:02;;;;;;;61.28;23.77;;;;;;;5.71;99.10;102125.38;5094725;28;20048;-64
2022/12/01 06:08:28;;;;;;;75.85;24.30;;;;;;;5.79;98.85;102129.34;5095401;28;20123;-65
2022/12/01 06:10:55;;;;;;;71.65;25.15;;;;;;;5.83;98.78;102129.06;5095314;28;20093;-64
2022/12/01 06:13:22;;;;;;;70.47;24.88;;;;;;;5.88;98.60;102132.28;5094910;28;20047;-65
2022/12/01 06:16:01;;;;;;;72.35;25.10;;;;;;;5.72;98.49;102134.94;5094533;28;20115;-64
2022/12/01 06:18:31;;;;;;;66.50;24.70;;;;;;;5.82;98.66;102135.28;5094955;28;20052;-64
2022/12/01 06:20:58;;;;;;;75.50;26.02;;;;;;;5.90;98.19;102140.09;5094962;28;20040;-65
2022/12/01 06:23:24;;;;;;;69.25;25.52;;;;;;;5.75;99.00;102145.31;5094047;28;20542;-66
2022/12/01 06:25:54;;;;;;;72.22;26.13;;;;;;;5.63;99.13;102143.38;5094995;28;20093;-65
2022/12/01 06:28:21;;;;;;;71.97;25.13;;;;;;;5.66;100.00;102145.84;5094660;28;20043;-65
2022/12/01 06:30:47;;;;;;;70.22;25.70;;;;;;;5.77;99.30;102151.34;5094582;28;20040;-65
2022/12/01 06:33:14;;;;;;;73.82;25.00;;;;;;;5.81;99.51;102145.91;5094705;28;20054;-65
2022/12/01 06:35:41;;;;;;;67.20;25.40;;;;;;;5.83;98.76;102146.66;5094546;28;20048;-65
2022/12/01 06:38:07;;;;;;;71.72;25.83;;;;;;;5.85;99.70;102147.41;5094828;28;20397;-65
2022/12/01 06:40:34;;;;;;;77.15;27.35;;;;;;;5.87;99.13;102150.81;5094443;28;20101;-65
2022/12/01 06:43:02;;;;;;;87.63;31.13;;;;;;;5.75;100.00;102144.47;5094490;28;20051;-65
2022/12/01 06:45:29;;;;;;;95.28;31.08;;;;;;;5.61;100.00;102153.16;5093978;28;20040;-66
2022/12/01 06:47:56;;;;;;;101.93;33.25;;;;;;;5.70;100.00;102155.25;5093827;28;20043;-64
2022/12/01 06:50:23;;;;;;;97.32;31.08;;;;;;;5.66;100.00;102155.53;5094369;28;20082;-65
2022/12/01 06:52:51;;;;;;;109.57;31.88;;;;;;;5.66;100.00;102153.75;5093821;28;20127;-65
2022/12/01 06:55:18;;;;;;;95.65;31.52;;;;;;;5.76;100.00;102154.91;5094151;28;20052;-66
2022/12/01 06:57:45;;;;;;;89.20;31.05;;;;;;;5.84;100.00;102161.50;5078446;28;20069;-64
2022/12/01 07:00:13;;;;;;;81.57;29.30;;;;;;;5.80;100.00;102160.84;5083192;28;20060;-64
2022/12/01 07:02:40;;;;;;;83.75;27.70;;;;;;;5.79;99.19;102159.16;5100890;28;20130;-64
2022/12/01 07:05:07;;;;;;;76.10;26.02;;;;;;;5.72;99.75;102155.19;5086395;28;20039;-64
2022/12/01 07:07:37;;;;;;;73.22;24.98;;;;;;;5.69;99.55;102153.56;5075381;28;20043;-65
2022/12/01 07:10:07;;;;;;;74.60;25.52;;;;;;;5.65;99.65;102154.66;5091270;28;20047;-65
2022/12/01 07:12:33;;;;;;;77.30;26.08;;;;;;;5.68;99.96;102157.13;5084525;28;20048;-65
2022/12/01 07:15:00;;;;;;;68.22;25.75;;;;;;;5.69;100.00;102166.72;5087614;28;20293;-64
2022/12/01 07:17:28;;;;;;;77.00;25.48;;;;;;;5.60;99.76;102169.88;5099631;28;20047;-65
2022/12/01 07:19:56;;;;;;;69.28;25.30;;;;;;;5.61;100.00;102168.13;5072653;28;20107;-65
2022/12/01 07:22:23;;;;;;;72.63;25.95;;;;;;;5.65;100.00;102167.84;5094366;28;20040;-64
2022/12/01 07:24:51;;;;;;;69.60;25.92;;;;;;;5.72;99.64;102177.09;5085523;28;20447;-65
2022/12/01 07:27:18;;;;;;;67.93;24.85;;;;;;;5.73;99.84;102168.25;5099109;28;20046;-65
2022/12/01 07:29:45;;;;;;;66.25;24.02;;;;;;;5.67;98.80;102173.84;5090840;28;20032;-65
2022/12/01 07:32:12;;;;;;;70.00;23.98;;;;;;;5.64;99.07;102168.78;5091705;28;20093;-65
2022/12/01 07:34:39;;;;;;;65.00;23.80;;;;;;;5.74;99.32;102167.31;5097373;28;20074;-65
2022/12/01 07:37:05;;;;;;;73.60;26.15;;;;;;;5.72;99.17;102165.72;5083409;28;20707;-65
2022/12/01 07:39:32;;;;;;;73.28;24.08;;;;;;;5.86;99.48;102172.84;5085443;28;20109;-65
2022/12/01 07:41:59;;;;;;;70.65;25.65;;;;;;;5.94;99.00;102179.31;5097746;28;20040;-65
2022/12/01 07:44:25;;;;;;;67.95;24.60;;;;;;;5.93;98.40;102176.78;5082802;28;20098;-65
2022/12/01 07:46:53;;;;;;;65.93;25.92;;;;;;;5.92;98.64;102178.56;5088774;28;20533;-65
2022/12/01 07:49:20;;;;;;;64.65;24.58;;;;;;;5.91;97.82;102176.03;5077478;28;20044;-65
2022/12/01 07:51:46;;;;;;;68.90;24.33;;;;;;;5.96;98.37;102177.47;5079866;28;20036;-65
2022/12/01 07:54:13;;;;;;;77.53;25.10;;;;;;;5.93;98.27;102177.66;5086584;28;20130;-65
2022/12/01 07:56:40;;;;;;;66.53;25.13;;;;;;;6.02;97.60;102180.69;5079756;28;20097;-65
2022/12/01 07:59:08;;;;;;;67.50;24.90;;;;;;;5.97;97.84;102181.00;5067176;28;21091;-65
2022/12/01 08:01:35;;;;;;;66.90;25.17;;;;;;;5.94;97.78;102176.69;5075234;28;20756;-65
2022/12/01 08:04:04;;;;;;;68.72;24.30;;;;;;;5.93;97.76;102187.31;5080523;28;20028;-65
2022/12/01 08:06:30;;;;;;;78.97;25.50;;;;;;;5.97;97.38;102183.63;5080543;28;20048;-66
2022/12/01 08:08:57;;;;;;;72.68;25.52;;;;;;;6.08;97.35;102183.00;5028893;28;20053;-65
2022/12/01 08:11:28;;;;;;;79.60;27.42;;;;;;;5.84;97.10;102191.34;5033318;28;20041;-65
2022/12/01 08:13:55;;;;;;;82.05;26.80;;;;;;;5.76;97.77;102188.28;5037243;28;20052;-65
2022/12/01 08:16:23;;;;;;;80.82;26.30;;;;;;;5.70;99.09;102192.13;5035893;28;20053;-66
2022/12/01 08:18:50;;;;;;;76.60;26.67;;;;;;;5.81;98.47;102194.16;5033737;28;20068;-65
2022/12/01 08:21:20;;;;;;;79.63;26.15;;;;;;;5.79;98.03;102201.28;5032356;28;20087;-65
2022/12/01 08:23:47;;;;;;;75.18;26.40;;;;;;;5.86;98.19;102199.16;5030629;28;20506;-65
2022/12/01 08:26:17;;;;;;;73.85;25.98;;;;;;;5.89;98.69;102199.81;5050580;28;20094;-65
2022/12/01 08:28:44;;;;;;;75.28;25.33;;;;;;;5.92;98.46;102194.38;5049307;28;20055;-65
2022/12/01 08:31:15;;;;;;;73.85;25.73;;;;;;;5.99;98.24;102194.06;5037081;28;20038;-65
2022/12/01 08:33:41;;;;;;;76.70;26.40;;;;;;;5.97;97.36;102199.44;5042812;28;20073;-65
2022/12/01 08:36:08;;;;;;;80.70;26.50;;;;;;;5.94;97.72;102200.41;5033729;28;20045;-65
2022/12/01 08:38:35;;;;;;;76.82;26.98;;;;;;;5.92;97.20;102204.06;5051851;28;20102;-64
2022/12/01 08:41:05;;;;;;;78.55;27.08;;;;;;;5.93;97.54;102208.38;5028065;28;20069;-64
2022/12/01 08:43:32;;;;;;;88.38;29.00;;;;;;;6.10;97.42;102207.47;5029888;28;20060;-65
2022/12/01 08:46:18;;;;;;;84.28;26.77;;;;;;;6.12;97.10;102213.50;4993321;28;20046;-66
2022/12/01 08:48:45;;;;;;;73.60;24.85;;;;;;;5.96;97.02;102214.38;5036958;28;20402;-65
2022/12/01 08:51:15;;;;;;;71.72;26.20;;;;;;;6.09;97.10;102208.38;5026126;28;20037;-64
2022/12/01 08:53:45;;;;;;;69.70;25.05;;;;;;;6.23;97.48;102207.59;5049071;28;20045;-64
2022/12/01 08:56:16;;;;;;;72.82;26.10;;;;;;;6.24;96.48;102209.28;5013078;28;20131;-65
2022/12/01 08:58:43;;;;;;;79.10;25.80;;;;;;;6.29;95.92;102209.88;5012104;28;20415;-65
2022/12/01 09:01:13;;;;;;;78.18;25.90;;;;;;;6.16;96.04;102207.09;4958999;28;20044;-65
2022/12/01 09:03:41;;;;;;;81.78;26.58;;;;;;;6.08;95.67;102207.56;5016305;28;20060;-66
2022/12/01 09:06:13;;;;;;;79.57;27.10;;;;;;;6.08;96.43;102214.63;5020569;28;20073;-66
2022/12/01 09:08:40;;;;;;;89.78;28.20;;;;;;;6.11;96.37;102222.31;5029850;28;21129;-64
2022/12/01 09:11:17;;;;;;;85.13;28.48;;;;;;;5.93;96.30;102213.66;5033676;28;20037;-65
2022/12/01 09:13:45;;;;;;;86.97;28.13;;;;;;;5.99;96.98;102229.16;5038099;28;20052;-65
2022/12/01 09:16:16;;;;;;;84.17;27.60;;;;;;;6.04;96.65;102219.22;5033241;28;20120;-65
2022/12/01 09:18:44;;;;;;;81.65;26.92;;;;;;;6.04;96.23;102215.72;5036997;28;20061;-64
2022/12/01 09:21:14;;;;;;;89.88;26.85;;;;;;;6.00;96.16;102227.38;5054087;28;20042;-65
2022/12/01 09:23:41;;;;;;;76.38;26.13;;;;;;;5.91;96.79;102228.69;5051049;28;20748;-66
2022/12/01 09:26:08;;;;;;;79.35;26.70;;;;;;;6.04;96.92;102228.88;5047476;28;20049;-64
2022/12/01 09:28:37;;;;;;;88.45;27.02;;;;;;;6.03;96.79;102220.13;5041209;28;20439;-65
2022/12/01 09:31:07;;;;;;;98.13;30.15;;;;;;;5.96;96.92;102224.06;5038981;28;20045;-65
2022/12/01 09:33:35;;;;;;;84.72;27.95;;;;;;;6.06;97.46;102230.50;5033739;28;20059;-65
2022/12/01 09:36:04;;;;;;;84.47;27.50;;;;;;;6.03;96.62;102224.56;5026954;28;20636;-64
2022/12/01 09:38:33;;;;;;;81.57;26.35;;;;;;;6.01;96.84;102229.09;5051129;28;20637;-65
2022/12/01 09:41:04;;;;;;;81.18;27.30;;;;;;;6.05;96.48;102228.81;5046192;28;20033;-65
2022/12/01 09:43:40;;;;;;;90.80;27.48;;;;;;;6.01;97.03;102223.81;5050245;28;20037;-65
2022/12/01 09:46:13;;;;;;;69.75;25.45;;;;;;;5.87;97.84;102220.13;5040332;28;20071;-65
2022/12/01 09:48:43;;;;;;;69.05;24.50;;;;;;;5.92;97.67;102225.97;5050318;28;20041;-65
2022/12/01 09:51:20;;;;;;;67.45;25.60;;;;;;;5.89;98.36;102217.41;5026090;28;20442;-64
2022/12/01 09:53:50;;;;;;;80.95;26.63;;;;;;;5.95;97.29;102215.31;5047967;28;20111;-64
2022/12/01 09:56:22;;;;;;;81.90;26.25;;;;;;;6.05;97.55;102220.06;5033585;28;20064;-66
2022/12/01 09:58:55;;;;;;;83.53;27.42;;;;;;;6.02;96.64;102218.47;5020180;28;20047;-65
2022/12/01 10:01:30;;;;;;;76.50;24.27;;;;;;;6.20;97.97;102213.03;5017506;28;20049;-65
2022/12/01 10:04:03;;;;;;;78.00;25.23;;;;;;;6.18;97.27;102215.75;5035591;28;20037;-65
2022/12/01 10:06:40;;;;;;;79.53;26.60;;;;;;;6.20;95.97;102215.69;5049837;28;20051;-66
2022/12/01 10:12:13;;;;;;;78.00;26.23;;;;;;;6.04;96.88;102215.72;5100080;27;20403;-65
2022/12/01 10:14:43;;;;;;;78.07;24.95;;;;;;;5.99;97.42;102205.44;5076309;28;20043;-65
2022/12/01 10:17:40;;;;;;;72.90;26.27;;;;;;;6.12;97.54;102201.16;5072527;28;20047;-65
2022/12/01 10:20:31;;;;;;;69.22;24.65;;;;;;;6.28;97.13;102203.75;5096732;28;20028;-65
2022/12/01 10:25:55;;;;;;;73.50;23.80;;;;;;;6.22;96.93;102205.88;5140807;27;20357;-65
2022/12/01 10:31:34;;;;;;;61.45;22.55;;;;;;;6.14;96.05;102215.09;5046588;27;20402;-65
2022/12/01 10:34:07;;;;;;;56.78;21.73;;;;;;;6.17;96.05;102205.31;5080501;28;20524;-66
2022/12/01 10:36:33;;;;;;;64.82;22.85;;;;;;;6.28;96.18;102205.56;5104298;28;20044;-68
2022/12/01 10:39:03;;;;;;;65.43;23.05;;;;;;;6.19;95.60;102198.19;5067641;28;20047;-66
2022/12/01 10:41:33;;;;;;;65.15;22.80;;;;;;;6.18;95.58;102196.47;5103132;28;20048;-65
2022/12/01 10:44:04;;;;;;;71.47;22.63;;;;;;;6.27;95.47;102195.94;5097967;28;20040;-65
2022/12/01 10:46:53;;;;;;;65.97;21.83;;;;;;;6.35;94.69;102196.34;5051925;28;20052;-65
2022/12/01 10:49:33;;;;;;;64.85;22.92;;;;;;;5.99;96.74;102191.44;5040883;28;20059;-65
2022/12/01 10:52:00;;;;;;;65.68;22.73;;;;;;;5.89;97.56;102188.44;5027744;28;20052;-65
2022/12/01 10:54:37;;;;;;;67.65;23.73;;;;;;;5.94;98.03;102191.66;5081787;28;20040;-65
2022/12/01 10:57:06;;;;;;;65.10;23.80;;;;;;;5.96;98.65;102189.81;5096271;28;20424;-65
2022/12/01 10:59:42;;;;;;;71.13;22.85;;;;;;;5.91;98.12;102184.78;5092709;28;20059;-65
2022/12/01 11:02:21;;;;;;;69.47;22.42;;;;;;;6.00;98.41;102190.50;5053284;28;20520;-65
2022/12/01 11:04:56;;;;;;;65.22;22.73;;;;;;;6.04;98.25;102189.38;5067768;28;20046;-65
2022/12/01 11:07:28;;;;;;;73.93;22.35;;;;;;;6.04;97.66;102189.38;5092224;28;20440;-66
2022/12/01 11:10:04;;;;;;;64.63;22.85;;;;;;;6.14;97.53;102193.16;5094648;28;20132;-66
2022/12/01 11:12:32;;;;;;;66.97;22.80;;;;;;;6.16;98.06;102188.66;5054663;28;20046;-66
2022/12/01 11:15:00;;;;;;;68.07;22.95;;;;;;;6.23;98.06;102189.16;5096904;28;20370;-66
2022/12/01 11:17:33;;;;;;;66.55;23.55;;;;;;;6.20;98.77;102190.16;5046554;28;20063;-66
2022/12/01 11:20:36;;;;;;;55.70;21.08;;;;;;;6.27;98.81;102183.59;5049495;28;20502;-66
2022/12/01 11:26:00;;;;;;;55.80;20.75;;;;;;;6.00;98.94;102191.31;5122790;27;20119;-66
2022/12/01 11:28:28;;;;;;;62.97;20.88;;;;;;;5.96;99.25;102188.03;5089028;27;20051;-66
2022/12/01 11:30:59;;;;;;;57.30;21.38;;;;;;;6.08;99.33;102188.28;5133468;27;20044;-66
2022/12/01 11:33:27;;;;;;;59.13;20.67;;;;;;;6.02;98.54;102192.13;5135225;27;20049;-66
2022/12/01 11:35:54;;;;;;;56.33;20.85;;;;;;;6.02;98.92;102184.22;5123206;27;20138;-66
2022/12/01 11:38:23;;;;;;;53.42;20.42;;;;;;;6.02;97.84;102181.56;5129839;27;20073;-66
2022/12/01 11:40:56;;;;;;;56.22;21.90;;;;;;;5.96;97.97;102182.75;5142388;27;20041;-66
2022/12/01 11:43:30;;;;;;;56.35;22.95;;;;;;;5.99;98.28;102181.75;5146493;27;20046;-66
2022/12/01 11:46:02;;;;;;;56.47;21.20;;;;;;;5.86;97.95;102170.19;5138928;27;20414;-66
2022/12/01 11:48:33;;;;;;;61.45;22.80;;;;;;;6.00;97.86;102186.06;5135707;27;20065;-64
2022/12/01 11:51:06;;;;;;;60.58;23.25;;;;;;;5.88;95.49;102178.84;5134022;27;20043;-66
2022/12/01 11:53:35;;;;;;;58.90;23.02;;;;;;;6.00;96.40;102180.78;5143595;27;20039;-66
2022/12/01 11:56:24;;;;;;;55.63;22.08;;;;;;;6.17;95.67;102174.56;5142196;27;20043;-65
2022/12/01 11:59:02;;;;;;;58.17;22.90;;;;;;;6.11;93.70;102175.78;5138237;27;20047;-65